createdAt,value
2023-03-10T00:01:49.261Z,4.93
2023-03-10T00:05:01.654Z,4.99
2023-03-10T00:16:56.620Z,5.28
2023-03-10T00:19:28.871Z,5.34
2023-03-10T00:26:34.928Z,5.51
2023-03-10T00:29:14.276Z,5.58
2023-03-10T00:31:47.477Z,5.65
2023-03-10T00:38:45.046Z,5.73
2023-03-10T00:45:49.893Z,5.86
2023-03-10T00:52:40.520Z,5.97
2023-03-10T00:55:11.400Z,6.01
2023-03-10T00:57:43.607Z,6.04
2023-03-10T01:00:24.140Z,6.08
2023-03-10T01:07:39.311Z,6.20
2023-03-10T01:15:19.737Z,6.32
2023-03-10T01:17:51.963Z,6.33
2023-03-10T01:20:31.223Z,6.34
2023-03-10T01:23:03.730Z,6.36
2023-03-10T01:25:42.111Z,6.41
2023-03-10T01:28:14.609Z,6.43
2023-03-10T01:35:37.566Z,6.48
2023-03-10T01:38:11.997Z,6.53
2023-03-10T01:45:47.011Z,6.62
2023-03-10T01:48:21.556Z,6.66
2023-03-10T01:51:01.303Z,6.70
2023-03-10T01:53:34.370Z,6.72
2023-03-10T02:09:05.969Z,6.83
2023-03-10T02:11:55.181Z,6.83
2023-03-10T02:15:14.024Z,6.84
2023-03-10T02:17:46.416Z,6.84
2023-03-10T02:24:56.044Z,6.88
2023-03-10T02:27:42.608Z,6.91
2023-03-10T02:35:04.571Z,6.93
2023-03-10T02:38:10.816Z,6.93
2023-03-10T02:40:52.818Z,6.94
2023-03-10T02:47:56.102Z,6.95
2023-03-10T02:50:31.919Z,6.97
2023-03-10T02:53:49.490Z,6.97
2023-03-10T02:56:29.420Z,6.98
2023-03-10T02:59:03.325Z,6.97
2023-03-10T03:02:04.205Z,6.97
2023-03-10T03:04:36.812Z,6.97
2023-03-10T03:11:36.949Z,6.92
2023-03-10T03:14:10.450Z,6.91
2023-03-10T03:16:50.019Z,6.89
2023-03-10T03:23:57.286Z,6.88
2023-03-10T03:31:02.108Z,6.88
2023-03-10T03:38:03.050Z,6.83
2023-03-10T03:41:22.410Z,6.81
2023-03-10T03:43:54.835Z,6.82
2023-03-10T03:51:45.333Z,6.74
2023-03-10T03:54:24.361Z,6.74
2023-03-10T03:56:57.204Z,6.73
2023-03-10T03:59:36.420Z,6.72
2023-03-10T04:02:08.850Z,6.69
2023-03-10T04:05:12.252Z,6.68
2023-03-10T04:08:22.013Z,6.69
2023-03-10T04:10:56.338Z,6.66
2023-03-10T04:13:58.152Z,6.64
2023-03-10T04:17:28.687Z,6.61
2023-03-10T04:25:09.996Z,6.49
2023-03-10T04:27:42.645Z,6.46
2023-03-10T04:35:29.971Z,6.36
2023-03-10T04:38:04.063Z,6.33
2023-03-10T04:41:30.414Z,6.33
2023-03-10T04:44:03.171Z,6.30
2023-03-10T04:46:37.163Z,6.30
2023-03-10T04:49:17.773Z,6.28
2023-03-10T05:00:56.416Z,6.21
2023-03-10T05:03:33.321Z,6.17
2023-03-10T05:06:06.050Z,6.16
2023-03-10T05:08:45.493Z,6.14
2023-03-10T05:11:35.499Z,6.12
2023-03-10T05:14:59.337Z,6.09
2023-03-10T05:17:32.041Z,6.11
2023-03-10T05:20:13.481Z,6.11
2023-03-10T05:23:27.066Z,6.10
2023-03-10T05:38:53.937Z,6.13
2023-03-10T05:41:26.336Z,6.14
2023-03-10T05:44:00.790Z,6.16
2023-03-10T05:46:51.592Z,6.19
2023-03-10T05:58:27.677Z,6.38
2023-03-10T06:01:00.308Z,6.44
2023-03-10T06:03:39.928Z,6.49
2023-03-10T06:06:12.782Z,6.58
2023-03-10T06:13:20.184Z,6.81
2023-03-10T06:16:01.336Z,6.93
2023-03-10T06:18:34.174Z,7.06
2023-03-10T06:21:15.481Z,7.17
2023-03-10T06:24:08.730Z,7.26
2023-03-10T06:26:47.407Z,7.34
2023-03-10T06:29:19.649Z,7.43
2023-03-10T06:44:19.413Z,8.25
2023-03-10T06:46:51.659Z,8.15
2023-03-10T06:49:34.053Z,8.12
2023-03-10T06:56:30.860Z,8.18
2023-03-10T07:03:35.529Z,8.29
2023-03-10T07:06:14.411Z,8.37
2023-03-10T07:08:48.849Z,8.43
2023-03-10T07:12:13.317Z,8.48
2023-03-10T07:14:45.520Z,8.54
2023-03-10T07:17:52.774Z,8.62
2023-03-10T07:20:25.801Z,8.74
2023-03-10T07:22:58.024Z,8.86
2023-03-10T07:29:56.720Z,10.17
2023-03-10T07:33:46.119Z,10.53
2023-03-10T07:40:18.105Z,10.88
2023-03-10T07:42:50.314Z,10.93
2023-03-10T07:45:22.767Z,10.96
2023-03-10T07:48:38.427Z,11.06
2023-03-10T07:51:12.550Z,11.66
2023-03-10T07:57:38.579Z,13.21
2023-03-10T08:00:13.178Z,13.71
2023-03-10T08:03:38.200Z,14.46
2023-03-10T08:10:22.731Z,15.50
2023-03-10T08:12:56.658Z,16.18
2023-03-10T08:20:01.683Z,16.40
2023-03-10T08:22:40.442Z,16.60
2023-03-10T08:25:13.701Z,17.26
2023-03-10T08:27:54.480Z,17.59
2023-03-10T08:30:26.827Z,17.27
2023-03-10T08:32:59.211Z,16.95
2023-03-10T08:39:33.330Z,17.45
2023-03-10T08:45:38.381Z,17.75
2023-03-10T08:48:10.477Z,17.84
2023-03-10T08:50:42.554Z,17.72
2023-03-10T09:00:24.702Z,16.04
2023-03-10T09:07:43.567Z,16.21
2023-03-10T09:10:22.677Z,16.13
2023-03-10T09:13:07.403Z,16.15
2023-03-10T09:16:40.572Z,15.98
2023-03-10T09:19:52.576Z,15.47
2023-03-10T09:26:57.630Z,14.50
2023-03-10T09:29:42.813Z,14.34
2023-03-10T09:36:15.922Z,16.29
2023-03-10T09:38:48.242Z,17.51
2023-03-10T09:41:53.368Z,18.53
2023-03-10T09:44:39.058Z,20.05
2023-03-10T09:48:02.565Z,21.47
2023-03-10T10:13:50.376Z,22.60
2023-03-10T10:16:37.772Z,21.86
2023-03-10T10:23:26.290Z,22.00
2023-03-10T10:26:53.244Z,21.14
2023-03-10T10:34:18.521Z,21.87
2023-03-10T10:37:25.733Z,22.23
2023-03-10T10:40:06.149Z,21.58
2023-03-10T10:50:37.379Z,18.81
2023-03-10T11:01:24.089Z,18.37
2023-03-10T11:04:26.814Z,18.40
2023-03-10T11:07:50.161Z,18.45
2023-03-10T11:18:14.345Z,17.98
2023-03-10T11:30:01.618Z,17.06
2023-03-10T11:32:49.940Z,16.79
2023-03-10T11:46:46.678Z,16.67
2023-03-10T11:56:03.658Z,16.70
2023-03-10T11:59:33.752Z,17.02
2023-03-10T12:10:53.639Z,20.39
2023-03-10T12:13:28.532Z,19.85
2023-03-10T12:16:47.050Z,19.05
2023-03-10T12:23:44.468Z,18.41
2023-03-10T12:31:30.568Z,17.89
2023-03-10T12:38:46.889Z,17.29
2023-03-10T12:44:55.402Z,16.95
2023-03-10T12:56:39.748Z,16.87
2023-03-10T13:11:22.958Z,16.05
2023-03-10T13:14:55.745Z,15.91
2023-03-10T13:21:59.322Z,16.99
2023-03-10T13:24:42.751Z,17.90
2023-03-10T13:32:06.427Z,18.94
2023-03-10T13:34:38.821Z,19.13
2023-03-10T13:40:47.282Z,19.77
2023-03-10T13:43:40.563Z,20.06
2023-03-10T13:47:01.751Z,19.97
2023-03-10T13:50:27.923Z,20.01
2023-03-10T13:53:02.176Z,19.87
2023-03-10T13:55:43.453Z,19.51
2023-03-10T13:58:16.506Z,19.40
2023-03-10T14:00:52.573Z,19.07
2023-03-10T14:05:02.152Z,18.56
2023-03-10T14:07:36.107Z,18.19
2023-03-10T14:10:31.566Z,17.98
2023-03-10T14:20:41.263Z,17.10
2023-03-10T14:23:48.104Z,16.84
2023-03-10T14:34:21.282Z,16.54
2023-03-10T14:37:00.440Z,16.48
2023-03-10T14:39:34.548Z,16.45
2023-03-10T14:47:11.694Z,16.34
2023-03-10T14:49:44.218Z,16.22
2023-03-10T14:57:09.151Z,16.00
2023-03-10T15:04:18.227Z,15.60
2023-03-10T15:11:35.689Z,15.38
2023-03-10T15:14:55.384Z,15.27
2023-03-10T15:17:48.034Z,15.20
2023-03-10T15:20:27.644Z,15.14
2023-03-10T15:22:59.976Z,15.07
2023-03-10T15:25:38.440Z,15.05
2023-03-10T15:31:26.378Z,15.05
2023-03-10T15:38:31.439Z,14.85
2023-03-10T15:41:10.361Z,14.78
2023-03-10T15:43:42.600Z,14.74
2023-03-10T15:46:21.573Z,14.70
2023-03-10T15:53:35.636Z,14.61
2023-03-10T15:56:15.520Z,14.59
2023-03-10T15:58:47.769Z,14.54
2023-03-10T16:01:26.245Z,14.45
2023-03-10T16:04:01.648Z,14.38
2023-03-10T16:07:26.300Z,14.31
2023-03-10T16:10:22.722Z,14.23
2023-03-10T16:17:29.812Z,14.07
2023-03-10T16:20:38.963Z,14.02
2023-03-10T16:23:18.393Z,13.94
2023-03-10T16:40:16.200Z,13.46
2023-03-10T16:42:48.349Z,13.35
2023-03-10T16:45:20.769Z,13.25
2023-03-10T16:47:52.896Z,13.10
2023-03-10T16:50:25.100Z,12.96
2023-03-10T16:52:57.318Z,12.81
2023-03-10T16:55:29.720Z,12.67
2023-03-10T16:58:01.934Z,12.51
2023-03-10T17:00:34.769Z,12.32
2023-03-10T17:03:07.237Z,12.11
2023-03-10T17:05:39.785Z,11.91
2023-03-10T17:08:12.544Z,11.73
2023-03-10T17:10:44.982Z,11.57
2023-03-10T17:13:17.500Z,11.43
2023-03-10T17:15:50.161Z,11.26
2023-03-10T17:18:22.542Z,11.14
2023-03-10T17:20:54.741Z,11.03
2023-03-10T17:26:52.426Z,10.78
2023-03-10T17:36:38.044Z,10.39
2023-03-10T17:47:20.000Z,10.17
2023-03-10T17:49:52.534Z,10.10
2023-03-10T17:52:24.888Z,10.07
2023-03-10T17:55:03.436Z,10.06
2023-03-10T18:02:08.623Z,10.02
2023-03-10T18:04:48.704Z,9.99
2023-03-10T18:07:21.041Z,10.01
2023-03-10T18:09:59.714Z,10.04
2023-03-10T18:12:31.872Z,10.02
2023-03-10T18:15:16.388Z,10.05
2023-03-10T18:17:49.363Z,10.11
2023-03-10T18:20:25.030Z,10.17
2023-03-10T18:22:57.558Z,10.26
2023-03-10T18:25:29.783Z,10.34
2023-03-10T18:28:02.537Z,10.41
2023-03-10T18:30:34.818Z,10.44
2023-03-10T18:33:07.965Z,10.42
2023-03-10T18:35:42.222Z,10.40
2023-03-10T18:38:16.157Z,10.41
2023-03-10T18:40:48.590Z,10.42
2023-03-10T18:43:20.830Z,10.47
2023-03-10T18:45:53.323Z,10.53
2023-03-10T18:48:33.662Z,10.55
2023-03-10T18:51:06.877Z,10.57
2023-03-10T18:53:40.099Z,10.59
2023-03-10T18:56:12.774Z,10.64
2023-03-10T18:58:48.113Z,10.64
2023-03-10T19:01:20.516Z,10.68
2023-03-10T19:07:09.035Z,10.77
2023-03-10T19:09:42.392Z,10.81
2023-03-10T19:12:14.673Z,10.85
2023-03-10T19:14:47.636Z,10.87
2023-03-10T19:17:20.238Z,10.90
2023-03-10T19:19:53.532Z,10.92
2023-03-10T19:22:27.176Z,10.95
2023-03-10T19:24:59.574Z,10.98
2023-03-10T19:27:33.903Z,11.00
2023-03-10T19:30:07.614Z,11.02
2023-03-10T19:32:40.326Z,11.05
2023-03-10T19:38:13.383Z,11.06
2023-03-10T19:40:55.961Z,11.06
2023-03-10T19:43:28.377Z,11.07
2023-03-10T19:46:03.808Z,11.08
2023-03-10T19:48:54.053Z,11.07
2023-03-10T19:51:37.613Z,11.05
2023-03-10T19:54:09.998Z,11.03
2023-03-10T19:56:42.375Z,11.00
2023-03-10T19:59:14.960Z,10.99
2023-03-10T20:01:49.141Z,11.00
2023-03-10T20:04:22.648Z,11.00
2023-03-10T20:06:55.064Z,11.00
2023-03-10T20:09:27.425Z,11.01
2023-03-10T20:11:59.781Z,11.00
2023-03-10T20:14:32.288Z,10.99
2023-03-10T20:17:05.331Z,10.98
2023-03-10T20:19:38.236Z,10.95
2023-03-10T20:22:18.834Z,10.90
2023-03-10T20:24:49.404Z,10.86
2023-03-10T20:30:55.499Z,10.76
2023-03-10T20:38:52.949Z,10.61
2023-03-10T20:41:25.419Z,10.54
2023-03-10T20:43:57.760Z,10.53
2023-03-10T20:51:02.176Z,10.46
2023-03-10T20:58:06.497Z,10.37
2023-03-10T21:00:48.900Z,10.34
2023-03-10T21:04:06.725Z,10.29
2023-03-10T21:37:25.826Z,10.02
2023-03-10T21:44:39.711Z,9.97
2023-03-10T21:47:18.557Z,9.97
2023-03-10T21:49:50.656Z,10.01
2023-03-10T21:57:13.778Z,9.99
2023-03-10T21:59:45.894Z,9.97
2023-03-10T22:02:45.304Z,9.98
2023-03-10T22:05:44.076Z,9.97
2023-03-10T22:08:25.471Z,9.92
2023-03-10T22:11:42.943Z,9.79
2023-03-10T22:14:24.037Z,9.68
2023-03-10T22:26:22.535Z,9.15
2023-03-10T22:29:27.096Z,9.02
2023-03-10T22:32:30.480Z,8.83
2023-03-10T22:35:02.708Z,8.62
2023-03-10T22:37:36.219Z,8.47
2023-03-10T22:40:17.891Z,8.35
2023-03-10T22:43:35.642Z,8.24
2023-03-10T22:54:53.044Z,7.89
2023-03-10T22:57:31.607Z,7.87
2023-03-10T23:00:04.408Z,7.82
2023-03-10T23:02:44.239Z,7.72
2023-03-10T23:05:17.118Z,7.63
2023-03-10T23:07:56.231Z,7.57
2023-03-10T23:10:31.148Z,7.55
2023-03-10T23:14:38.218Z,7.61
2023-03-10T23:17:16.678Z,7.69
2023-03-10T23:19:51.298Z,7.69
2023-03-10T23:23:10.478Z,7.66
2023-03-10T23:25:44.438Z,7.67
2023-03-10T23:28:23.539Z,7.75
2023-03-10T23:30:55.830Z,7.82
2023-03-10T23:33:34.749Z,7.89
2023-03-10T23:36:08.431Z,7.96
2023-03-10T23:38:41.746Z,8.04
2023-03-10T23:41:20.716Z,8.11
2023-03-10T23:43:53.572Z,8.15
2023-03-10T23:55:26.264Z,8.16
